Time;durP1;ratioP1;P1;durP2;ratioP2;P2;SDS_P1;SDS_P2;PMS_P1;PMS_P2;Temp;Humidity;BMP_temperature;BMP_pressure;BME280_temperature;BME280_humidity;BME280_pressure;Samples;Min_cycle;Max_cycle;Signal;HPM_P1;HPM_P2
2022/05/20 00:02:22;;;;;;;555.57;524.90;;;16.00;99.90;;;;;;5057070;28;20480;-82
2022/05/20 00:04:48;;;;;;;521.17;493.27;;;16.00;99.90;;;;;;5057612;28;20455;-82
2022/05/20 00:07:15;;;;;;;512.90;485.30;;;16.20;99.90;;;;;;5057579;28;20479;-82
2022/05/20 00:09:42;;;;;;;477.13;451.30;;;16.30;99.90;;;;;;5056633;28;20454;-82
2022/05/20 00:12:11;;;;;;;438.13;416.00;;;16.40;99.90;;;;;;5056875;28;20475;-83
2022/05/20 00:14:38;;;;;;;400.20;381.10;;;16.30;99.90;;;;;;5056626;28;20457;-82
2022/05/20 00:17:05;;;;;;;376.43;359.60;;;16.40;99.90;;;;;;5057625;28;20455;-82
2022/05/20 00:19:32;;;;;;;321.63;308.00;;;16.40;99.90;;;;;;5056990;28;20481;-82
2022/05/20 00:21:59;;;;;;;272.67;261.73;;;16.40;99.90;;;;;;5056901;28;20454;-83
2022/05/20 00:24:26;;;;;;;248.10;236.93;;;16.40;99.90;;;;;;5057159;28;20950;-82
2022/05/20 00:26:53;;;;;;;199.23;190.83;;;16.50;99.90;;;;;;5058292;28;20462;-82
2022/05/20 00:29:21;;;;;;;168.83;161.30;;;16.40;99.90;;;;;;5055909;28;20477;-82
2022/05/20 00:31:47;;;;;;;178.67;170.77;;;16.50;99.90;;;;;;5056944;28;21147;-82
2022/05/20 00:34:14;;;;;;;157.23;150.00;;;16.50;99.90;;;;;;5056326;28;20465;-82
2022/05/20 00:36:41;;;;;;;146.00;139.47;;;16.50;99.90;;;;;;5056569;28;20454;-82
2022/05/20 00:39:08;;;;;;;128.73;122.50;;;16.50;99.90;;;;;;5056019;28;20851;-82
2022/05/20 00:41:34;;;;;;;130.97;124.43;;;16.50;99.90;;;;;;5056067;28;20451;-82
2022/05/20 00:44:01;;;;;;;164.30;156.50;;;16.40;99.90;;;;;;5056283;28;20961;-82
2022/05/20 00:46:30;;;;;;;132.93;126.33;;;16.40;99.90;;;;;;5056629;28;20455;-82
2022/05/20 00:49:01;;;;;;;155.80;148.17;;;16.40;99.90;;;;;;5055653;28;20488;-82
2022/05/20 00:51:30;;;;;;;175.83;167.33;;;16.40;99.90;;;;;;5056455;28;21038;-82
2022/05/20 00:54:01;;;;;;;133.87;126.97;;;16.40;99.90;;;;;;5054644;28;21393;-83
2022/05/20 00:56:33;;;;;;;142.13;134.17;;;16.30;99.90;;;;;;5059229;28;20463;-82
2022/05/20 00:59:00;;;;;;;178.37;169.77;;;16.30;99.90;;;;;;5055336;28;20473;-82
2022/05/20 01:01:29;;;;;;;175.27;166.97;;;16.30;99.90;;;;;;5056766;28;20455;-82
2022/05/20 01:03:57;;;;;;;176.47;168.73;;;16.20;99.90;;;;;;5055925;28;20445;-82
2022/05/20 01:06:23;;;;;;;210.73;201.10;;;16.40;99.90;;;;;;5056621;28;20454;-82
2022/05/20 01:08:50;;;;;;;227.40;217.83;;;16.30;99.90;;;;;;5056667;28;20485;-82
2022/05/20 01:11:17;;;;;;;254.70;244.27;;;16.30;99.90;;;;;;5056166;28;20466;-82
2022/05/20 01:13:47;;;;;;;240.90;229.80;;;16.30;99.90;;;;;;5056090;28;20480;-82
2022/05/20 01:16:15;;;;;;;253.13;242.33;;;16.30;99.90;;;;;;5055696;28;20896;-83
2022/05/20 01:18:46;;;;;;;260.03;248.83;;;16.30;99.90;;;;;;5055504;28;20527;-82
2022/05/20 01:21:14;;;;;;;305.73;292.23;;;16.20;99.90;;;;;;5056871;28;20458;-82
2022/05/20 01:23:42;;;;;;;293.63;281.23;;;16.20;99.90;;;;;;5057659;28;20538;-82
2022/05/20 01:26:09;;;;;;;292.67;280.00;;;16.10;99.90;;;;;;5057309;28;20455;-83
2022/05/20 01:28:36;;;;;;;304.87;292.67;;;16.10;99.90;;;;;;5056348;28;20474;-82
2022/05/20 01:31:05;;;;;;;359.17;343.87;;;15.90;99.90;;;;;;5056453;28;20450;-83
2022/05/20 01:33:35;;;;;;;355.97;340.57;;;15.80;99.90;;;;;;5057652;28;20480;-81
2022/05/20 01:36:06;;;;;;;385.80;369.20;;;15.60;99.90;;;;;;5057319;28;20462;-82
2022/05/20 01:38:33;;;;;;;416.90;399.17;;;15.50;99.90;;;;;;5058310;28;20482;-82
2022/05/20 01:41:04;;;;;;;522.07;498.30;;;15.40;99.90;;;;;;5055918;28;20452;-82
2022/05/20 01:43:52;;;;;;;610.37;581.03;;;15.30;99.90;;;;;;5056354;28;20460;-82
2022/05/20 01:46:28;;;;;;;686.57;650.07;;;15.20;99.90;;;;;;5056901;28;20462;-82
2022/05/20 01:49:08;;;;;;;712.33;673.23;;;15.00;99.90;;;;;;5088190;22;20486;-85
2022/05/20 01:51:44;;;;;;;791.27;743.67;;;14.90;99.90;;;;;;5072953;28;20828;-82
2022/05/20 01:54:17;;;;;;;821.10;768.90;;;14.80;99.90;;;;;;5072658;28;20474;-82
2022/05/20 01:56:50;;;;;;;847.33;793.07;;;14.60;99.90;;;;;;5076392;28;20465;-81
2022/05/20 01:59:21;;;;;;;842.70;789.97;;;14.60;99.90;;;;;;5084914;28;20862;-80
2022/05/20 02:01:54;;;;;;;873.17;815.77;;;14.50;99.90;;;;;;5093036;28;20450;-81
2022/05/20 02:04:26;;;;;;;894.07;834.70;;;14.40;99.90;;;;;;5092847;28;20851;-80
2022/05/20 02:06:57;;;;;;;905.03;844.30;;;14.20;99.90;;;;;;5093040;28;20449;-81
2022/05/20 02:09:28;;;;;;;916.73;851.97;;;14.20;99.90;;;;;;5092394;28;20476;-81
2022/05/20 02:11:58;;;;;;;936.80;866.50;;;14.10;99.90;;;;;;5093204;28;20461;-81
2022/05/20 02:14:30;;;;;;;951.70;880.70;;;14.00;99.90;;;;;;5092651;28;20488;-81
2022/05/20 02:17:12;;;;;;;948.47;874.53;;;14.00;99.90;;;;;;5092767;28;20461;-81
2022/05/20 02:19:44;;;;;;;960.63;884.60;;;14.00;99.90;;;;;;5092134;28;20843;-81
2022/05/20 02:22:14;;;;;;;946.73;872.43;;;14.00;99.90;;;;;;5092915;28;20445;-81
2022/05/20 02:24:43;;;;;;;958.20;883.30;;;13.90;99.90;;;;;;5092926;28;20783;-81
2022/05/20 02:27:16;;;;;;;955.53;880.13;;;13.80;99.90;;;;;;5092733;28;20453;-79
2022/05/20 02:29:48;;;;;;;950.33;873.17;;;13.80;99.90;;;;;;5092869;28;20477;-81
2022/05/20 02:32:21;;;;;;;945.17;867.93;;;13.80;99.90;;;;;;5096372;28;20806;-81
2022/05/20 02:34:50;;;;;;;947.13;869.07;;;13.80;99.90;;;;;;5098304;28;20445;-81
2022/05/20 02:37:20;;;;;;;965.03;882.50;;;13.60;99.90;;;;;;5097795;28;20446;-81
2022/05/20 02:39:47;;;;;;;969.70;883.97;;;13.60;99.90;;;;;;5097358;28;20469;-81
2022/05/20 02:42:15;;;;;;;963.47;878.57;;;13.70;99.90;;;;;;5097452;28;20445;-81
2022/05/20 02:44:42;;;;;;;963.40;878.03;;;13.70;99.90;;;;;;5097072;28;20457;-81
2022/05/20 02:47:10;;;;;;;966.87;880.77;;;13.60;99.90;;;;;;5096887;28;20464;-82
2022/05/20 02:49:36;;;;;;;948.10;864.63;;;13.60;99.90;;;;;;5096056;28;20476;-81
2022/05/20 02:52:03;;;;;;;944.87;864.47;;;13.60;99.90;;;;;;5097323;28;20460;-81
2022/05/20 02:54:31;;;;;;;943.90;863.73;;;13.30;99.90;;;;;;5097715;28;20472;-81
2022/05/20 02:56:58;;;;;;;953.27;872.27;;;13.40;99.90;;;;;;5096221;28;20456;-80
2022/05/20 03:04:55;;;;;;;931.43;851.40;;;13.60;99.90;;;;;;5097059;28;20503;-81
2022/05/20 03:07:22;;;;;;;927.97;851.37;;;13.60;99.90;;;;;;5096325;28;20462;-79
2022/05/20 03:09:48;;;;;;;933.10;856.97;;;13.60;99.90;;;;;;5095372;28;20473;-81
2022/05/20 03:12:15;;;;;;;946.70;869.43;;;13.60;99.90;;;;;;5095850;28;20453;-80
2022/05/20 03:14:43;;;;;;;953.77;874.80;;;13.50;99.90;;;;;;5095816;28;20598;-81
2022/05/20 03:17:10;;;;;;;943.17;864.93;;;13.60;99.90;;;;;;5099340;28;20476;-81
2022/05/20 03:19:38;;;;;;;956.93;874.80;;;13.70;99.90;;;;;;5095578;28;20473;-82
2022/05/20 03:22:06;;;;;;;957.37;874.60;;;13.70;99.90;;;;;;5095552;28;20456;-81
2022/05/20 03:24:34;;;;;;;952.23;869.60;;;13.80;99.90;;;;;;5097214;28;20449;-80
2022/05/20 03:27:00;;;;;;;947.93;865.57;;;14.00;99.90;;;;;;5095532;28;20477;-81
2022/05/20 03:29:27;;;;;;;954.60;873.77;;;14.10;99.90;;;;;;5094938;28;20481;-81
2022/05/20 03:31:55;;;;;;;946.23;867.50;;;14.20;99.90;;;;;;5095548;28;20545;-81
2022/05/20 03:34:22;;;;;;;951.77;875.07;;;14.30;99.90;;;;;;5095775;28;20997;-81
2022/05/20 03:36:50;;;;;;;955.20;879.90;;;14.40;99.90;;;;;;5095791;28;20461;-81
2022/05/20 03:39:20;;;;;;;962.83;886.57;;;14.40;99.90;;;;;;5096207;28;20479;-80
2022/05/20 03:41:47;;;;;;;964.63;886.90;;;14.50;99.90;;;;;;5094941;28;20473;-85
2022/05/20 03:44:16;;;;;;;961.77;886.40;;;14.50;99.90;;;;;;5095241;28;20441;-80
2022/05/20 03:46:45;;;;;;;962.63;888.67;;;14.70;99.90;;;;;;5094781;28;20461;-81
2022/05/20 03:49:13;;;;;;;959.60;889.90;;;14.70;99.90;;;;;;5094422;28;20477;-81
2022/05/20 03:51:40;;;;;;;953.07;887.10;;;14.70;99.90;;;;;;5094769;28;20790;-81
2022/05/20 03:54:07;;;;;;;938.40;876.17;;;14.80;99.90;;;;;;5102347;28;20473;-83
2022/05/20 03:56:36;;;;;;;933.43;871.97;;;14.80;99.90;;;;;;5099773;28;20936;-83
2022/05/20 03:59:03;;;;;;;889.37;830.63;;;15.00;99.90;;;;;;5111271;28;20471;-83
2022/05/20 04:04:17;;;;;;;869.73;811.73;;;15.00;99.90;;;;;;5102993;28;20522;-82
2022/05/20 04:06:44;;;;;;;868.37;811.97;;;15.10;99.90;;;;;;5104777;28;20450;-82
2022/05/20 04:09:11;;;;;;;859.17;803.77;;;15.20;99.90;;;;;;5111349;28;20501;-83
2022/05/20 04:11:38;;;;;;;846.80;792.00;;;15.20;99.90;;;;;;5110715;28;20537;-83
2022/05/20 04:14:05;;;;;;;858.10;802.60;;;15.20;99.90;;;;;;5109290;28;20502;-83
2022/05/20 04:16:32;;;;;;;804.03;752.50;;;15.40;99.90;;;;;;5110584;28;20457;-82
2022/05/20 04:18:58;;;;;;;769.90;720.93;;;15.40;99.90;;;;;;5109590;28;20557;-83
2022/05/20 04:21:26;;;;;;;753.40;705.40;;;15.40;99.90;;;;;;5109540;28;20446;-83
2022/05/20 04:23:53;;;;;;;728.30;682.17;;;15.40;99.90;;;;;;5109632;28;20458;-83
2022/05/20 04:26:20;;;;;;;725.80;679.07;;;15.30;99.90;;;;;;5109709;28;20443;-82
2022/05/20 04:28:47;;;;;;;731.90;685.13;;;15.50;99.90;;;;;;5108707;28;20486;-83
2022/05/20 04:31:14;;;;;;;714.13;669.00;;;15.50;99.90;;;;;;5108891;28;20451;-83
2022/05/20 04:33:41;;;;;;;682.97;640.33;;;15.60;99.90;;;;;;5109822;28;20470;-83
2022/05/20 04:36:08;;;;;;;664.70;624.20;;;15.60;99.90;;;;;;5108918;28;20450;-83
2022/05/20 04:38:37;;;;;;;647.87;608.57;;;15.70;99.90;;;;;;5108948;28;20482;-83
2022/05/20 04:49:18;;;;;;;573.13;539.50;;;15.90;99.90;;;;;;5111058;28;20495;-83
2022/05/20 04:51:44;;;;;;;509.67;480.83;;;16.00;99.90;;;;;;5110734;28;20836;-83
2022/05/20 04:56:56;;;;;;;466.47;441.73;;;16.10;99.90;;;;;;5102580;28;20427;-83
2022/05/20 04:59:24;;;;;;;437.27;415.00;;;16.20;99.90;;;;;;5101269;28;20486;-84
2022/05/20 05:01:52;;;;;;;403.63;383.43;;;16.30;99.90;;;;;;5101360;28;20537;-85
2022/05/20 05:04:21;;;;;;;354.63;336.93;;;16.40;99.90;;;;;;5098648;28;20448;-84
2022/05/20 05:06:48;;;;;;;314.47;299.70;;;16.40;99.90;;;;;;5099378;28;20460;-83
2022/05/20 05:09:16;;;;;;;302.87;287.70;;;16.40;99.90;;;;;;5095776;28;20536;-85
2022/05/20 05:11:49;;;;;;;291.80;278.77;;;16.60;99.90;;;;;;5097870;28;20449;-85
2022/05/20 05:14:16;;;;;;;266.47;253.87;;;16.80;99.90;;;;;;5099234;28;20474;-85
2022/05/20 05:16:43;;;;;;;270.83;258.57;;;16.70;99.90;;;;;;5099709;28;20449;-84
2022/05/20 05:19:11;;;;;;;245.83;234.80;;;16.70;99.90;;;;;;5098786;28;20470;-82
2022/05/20 05:21:38;;;;;;;222.50;211.53;;;16.80;99.90;;;;;;5100169;28;20469;-84
2022/05/20 05:24:06;;;;;;;134.93;127.33;;;16.90;99.90;;;;;;5098989;28;20460;-85
2022/05/20 05:26:35;;;;;;;128.87;120.87;;;17.10;99.90;;;;;;5100053;28;20445;-84
2022/05/20 05:29:04;;;;;;;66.40;60.13;;;17.40;99.90;;;;;;5098323;28;20480;-83
2022/05/20 05:31:30;;;;;;;39.50;34.53;;;17.80;99.90;;;;;;5098302;28;20495;-85
2022/05/20 05:33:57;;;;;;;36.80;24.10;;;18.30;99.90;;;;;;5101417;28;20848;-85
2022/05/20 05:36:24;;;;;;;35.27;23.10;;;18.60;99.70;;;;;;5101790;28;20456;-84
2022/05/20 05:38:51;;;;;;;33.23;22.87;;;18.60;96.30;;;;;;5100336;28;20467;-82
2022/05/20 05:41:19;;;;;;;33.90;22.07;;;18.80;95.60;;;;;;5100747;28;20452;-85
2022/05/20 05:43:48;;;;;;;30.30;20.50;;;19.20;94.80;;;;;;5100133;28;20518;-87
2022/05/20 05:46:14;;;;;;;31.10;18.67;;;19.30;91.10;;;;;;5100877;28;20462;-85
2022/05/20 05:48:41;;;;;;;34.43;21.23;;;19.30;90.30;;;;;;5101424;28;20494;-85
2022/05/20 05:51:08;;;;;;;25.63;19.27;;;19.50;85.60;;;;;;5100908;28;20956;-87
2022/05/20 05:53:35;;;;;;;29.23;19.00;;;19.80;86.60;;;;;;5096181;28;20476;-83
2022/05/20 05:56:05;;;;;;;31.83;20.57;;;19.80;83.90;;;;;;5093192;28;20454;-83
2022/05/20 05:58:33;;;;;;;26.80;21.13;;;20.10;82.20;;;;;;5093078;28;20474;-83
2022/05/20 06:01:02;;;;;;;30.27;20.80;;;20.20;79.90;;;;;;5093375;28;20452;-83
2022/05/20 06:03:29;;;;;;;33.10;21.23;;;20.30;78.40;;;;;;5092951;28;20452;-83
2022/05/20 06:05:56;;;;;;;31.30;21.70;;;20.60;80.80;;;;;;5094212;28;20944;-83
2022/05/20 06:08:23;;;;;;;39.10;22.37;;;20.80;75.30;;;;;;5096627;28;20477;-83
2022/05/20 06:10:50;;;;;;;34.13;22.33;;;21.10;74.10;;;;;;5095286;28;20458;-85
2022/05/20 06:13:23;;;;;;;31.20;21.93;;;21.50;71.50;;;;;;5096545;28;20462;-83
2022/05/20 06:15:51;;;;;;;32.13;22.43;;;21.80;69.10;;;;;;5096446;28;20521;-84
2022/05/20 06:18:19;;;;;;;33.97;22.70;;;22.10;67.30;;;;;;5095815;28;20480;-84
2022/05/20 06:20:45;;;;;;;32.33;21.60;;;22.30;63.90;;;;;;5096074;28;20979;-84
2022/05/20 06:23:12;;;;;;;30.10;21.27;;;22.20;64.70;;;;;;5097691;28;20461;-82
2022/05/20 06:25:39;;;;;;;30.00;22.00;;;22.00;65.00;;;;;;5096705;28;20823;-84
2022/05/20 06:28:07;;;;;;;37.90;21.80;;;21.80;66.70;;;;;;5096464;28;20466;-82
2022/05/20 06:30:35;;;;;;;33.23;22.23;;;21.40;68.80;;;;;;5097631;28;20455;-82
2022/05/20 06:33:02;;;;;;;34.57;22.30;;;21.30;73.00;;;;;;5097401;28;20451;-79
2022/05/20 06:41:02;;;;;;;32.70;21.87;;;22.00;69.10;;;;;;5094498;28;20435;-81
2022/05/20 06:43:28;;;;;;;32.73;20.90;;;22.30;68.10;;;;;;5094447;28;20456;-81
2022/05/20 06:45:58;;;;;;;34.90;22.40;;;22.10;65.40;;;;;;5095531;28;20460;-82
2022/05/20 06:48:25;;;;;;;33.60;22.57;;;22.40;65.80;;;;;;5095931;28;21033;-82
2022/05/20 06:50:53;;;;;;;35.40;23.40;;;22.40;66.90;;;;;;5095228;28;20460;-82
2022/05/20 06:53:20;;;;;;;34.33;23.83;;;23.20;63.60;;;;;;5095406;28;20435;-82
2022/05/20 06:55:46;;;;;;;37.30;24.70;;;23.70;58.90;;;;;;5094873;28;20473;-82
2022/05/20 06:58:13;;;;;;;37.40;25.03;;;23.60;57.20;;;;;;5094485;28;20473;-80
2022/05/20 07:00:40;;;;;;;36.03;22.77;;;23.70;56.10;;;;;;5094851;28;20460;-82
2022/05/20 07:03:07;;;;;;;33.07;23.10;;;23.90;56.90;;;;;;5095474;28;20455;-82
2022/05/20 07:05:34;;;;;;;32.33;22.77;;;24.20;55.50;;;;;;5095136;28;20949;-82
2022/05/20 07:08:02;;;;;;;30.30;19.13;;;24.90;53.20;;;;;;5095597;28;20449;-82
2022/05/20 07:10:28;;;;;;;33.80;21.53;;;24.60;51.80;;;;;;5096455;28;20457;-82
2022/05/20 07:12:55;;;;;;;29.67;21.60;;;24.50;50.40;;;;;;5096299;28;20453;-82
2022/05/20 07:15:22;;;;;;;34.57;22.03;;;24.50;51.50;;;;;;5096333;28;20477;-83
2022/05/20 07:17:49;;;;;;;32.00;22.30;;;24.50;51.80;;;;;;5096362;28;20941;-82
2022/05/20 07:20:16;;;;;;;30.50;20.47;;;24.40;51.30;;;;;;5102116;28;20453;-83
2022/05/20 07:22:42;;;;;;;32.43;21.73;;;24.40;53.70;;;;;;5097483;28;20450;-82
2022/05/20 07:25:11;;;;;;;36.73;21.90;;;24.50;54.10;;;;;;5095668;28;20453;-82
2022/05/20 07:27:39;;;;;;;31.57;21.37;;;24.60;52.30;;;;;;5096219;28;20449;-83
2022/05/20 07:30:07;;;;;;;31.97;22.80;;;24.30;52.50;;;;;;5094490;28;20469;-82
2022/05/20 07:32:34;;;;;;;40.30;25.53;;;24.60;51.70;;;;;;5095537;28;20457;-82
2022/05/20 07:35:01;;;;;;;29.37;22.70;;;24.40;52.00;;;;;;5094598;28;20477;-82
2022/05/20 07:37:27;;;;;;;39.23;23.83;;;24.50;51.30;;;;;;5094594;28;20449;-82
2022/05/20 07:39:54;;;;;;;40.63;23.07;;;24.30;52.00;;;;;;5093688;28;20472;-82
2022/05/20 07:42:22;;;;;;;37.90;23.93;;;24.30;52.30;;;;;;5094836;28;20457;-82
2022/05/20 07:44:49;;;;;;;35.13;23.60;;;24.30;53.30;;;;;;5093430;28;20958;-82
2022/05/20 07:47:16;;;;;;;38.60;24.60;;;24.50;53.20;;;;;;5096138;28;20453;-82
2022/05/20 07:49:43;;;;;;;37.70;24.00;;;23.60;53.60;;;;;;5094826;22;20813;-81
2022/05/20 07:52:13;;;;;;;41.13;23.47;;;23.90;54.50;;;;;;5057214;28;20834;-81
2022/05/20 07:54:43;;;;;;;34.83;20.90;;;24.40;54.10;;;;;;5057370;28;20617;-81
2022/05/20 07:57:14;;;;;;;36.47;23.73;;;24.80;51.00;;;;;;5056477;28;20452;-83
2022/05/20 07:59:46;;;;;;;34.57;21.73;;;25.00;49.10;;;;;;5070918;28;20500;-80
2022/05/20 08:02:14;;;;;;;37.80;23.20;;;25.10;49.10;;;;;;5078128;28;20439;-80
2022/05/20 08:05:00;;;;;;;32.40;21.47;;;25.50;48.10;;;;;;5078154;28;20447;-81
2022/05/20 08:07:31;;;;;;;31.83;23.47;;;25.20;45.60;;;;;;5077586;28;20450;-81
2022/05/20 08:09:58;;;;;;;36.10;23.23;;;25.40;44.80;;;;;;5076573;28;20485;-81
2022/05/20 08:12:25;;;;;;;39.00;23.03;;;26.00;45.30;;;;;;5077432;28;20461;-81
2022/05/20 08:14:53;;;;;;;32.37;22.20;;;26.00;44.40;;;;;;5077402;28;20482;-80
2022/05/20 08:17:22;;;;;;;33.63;21.03;;;26.30;40.90;;;;;;5077583;28;20455;-82
2022/05/20 08:19:51;;;;;;;27.87;19.87;;;25.90;40.60;;;;;;5076964;28;20501;-80
2022/05/20 08:22:22;;;;;;;32.43;22.10;;;26.40;41.50;;;;;;5077647;28;21048;-81
2022/05/20 08:24:49;;;;;;;34.10;22.70;;;26.30;40.90;;;;;;5084837;28;20449;-82
2022/05/20 08:27:16;;;;;;;28.57;21.73;;;26.40;40.30;;;;;;5084489;28;20459;-82
2022/05/20 08:29:43;;;;;;;28.97;20.20;;;26.20;40.80;;;;;;5083494;28;20481;-82
2022/05/20 08:32:11;;;;;;;34.63;22.07;;;26.40;40.90;;;;;;5085431;28;20457;-82
2022/05/20 08:34:37;;;;;;;30.40;21.47;;;26.30;40.90;;;;;;5083471;28;20460;-81
2022/05/20 08:37:04;;;;;;;33.40;24.23;;;26.00;40.70;;;;;;5080978;28;20454;-82
2022/05/20 08:39:31;;;;;;;40.43;26.50;;;25.70;44.10;;;;;;5078295;28;20473;-81
2022/05/20 08:41:58;;;;;;;38.10;25.47;;;25.20;45.30;;;;;;5080008;28;20432;-80
2022/05/20 08:44:25;;;;;;;39.53;25.20;;;25.00;46.70;;;;;;5080892;28;20446;-82
2022/05/20 08:47:07;;;;;;;33.87;23.57;;;25.10;49.00;;;;;;5081348;28;20446;-82
2022/05/20 08:49:38;;;;;;;28.73;23.07;;;25.60;46.20;;;;;;5077050;28;20508;-83
2022/05/20 08:52:05;;;;;;;37.47;28.20;;;25.90;45.20;;;;;;5079608;28;20454;-83
2022/05/20 08:54:32;;;;;;;37.13;26.47;;;26.00;44.60;;;;;;5077369;28;20466;-85
2022/05/20 08:57:15;;;;;;;47.77;28.63;;;25.90;44.90;;;;;;5075282;28;20942;-85
2022/05/20 08:59:43;;;;;;;38.90;28.60;;;25.90;43.00;;;;;;5075149;28;20484;-85
2022/05/20 09:02:09;;;;;;;39.80;27.70;;;26.40;43.20;;;;;;5074779;28;20817;-83
2022/05/20 09:04:37;;;;;;;33.30;26.70;;;27.10;41.40;;;;;;5074255;28;20450;-83
2022/05/20 09:07:07;;;;;;;36.13;25.80;;;27.90;38.10;;;;;;5075868;28;20196;-83
2022/05/20 09:09:44;;;;;;;34.03;24.07;;;27.80;34.20;;;;;;5074263;28;20994;-83
2022/05/20 09:12:23;;;;;;;34.07;24.50;;;27.30;34.30;;;;;;5075796;28;20432;-82
2022/05/20 09:17:44;;;;;;;31.90;24.43;;;27.10;35.70;;;;;;5077222;28;20490;-82
2022/05/20 09:20:14;;;;;;;33.10;24.90;;;27.50;36.60;;;;;;5074806;28;20949;-82
2022/05/20 09:22:42;;;;;;;33.93;26.40;;;27.80;34.00;;;;;;5076263;28;20450;-83
2022/05/20 09:25:20;;;;;;;34.77;25.90;;;27.50;34.60;;;;;;5074847;28;20442;-83
2022/05/20 09:27:47;;;;;;;33.50;25.77;;;27.20;33.70;;;;;;5063178;28;20484;-83
2022/05/20 09:30:20;;;;;;;29.60;22.67;;;27.50;34.70;;;;;;5056691;28;20573;-83
2022/05/20 09:33:00;;;;;;;30.03;21.53;;;28.00;32.60;;;;;;5055840;28;20455;-84
2022/05/20 09:35:34;;;;;;;30.87;21.90;;;28.50;30.20;;;;;;5054737;28;20449;-86
2022/05/20 09:38:10;;;;;;;36.10;22.60;;;28.20;30.20;;;;;;5055221;28;20425;-86
2022/05/20 09:40:41;;;;;;;31.23;23.70;;;27.80;31.90;;;;;;5054557;28;20838;-85
2022/05/20 09:43:10;;;;;;;36.60;22.77;;;28.40;31.50;;;;;;5054466;28;20950;-82
2022/05/20 09:45:43;;;;;;;29.80;21.50;;;28.50;28.50;;;;;;5054590;28;20458;-83
2022/05/20 09:48:11;;;;;;;26.60;19.90;;;29.20;26.40;;;;;;5053890;28;20430;-82
2022/05/20 09:50:39;;;;;;;28.50;22.40;;;28.90;26.70;;;;;;5054644;28;20458;-83
2022/05/20 09:53:14;;;;;;;28.33;21.70;;;29.30;25.60;;;;;;5054179;28;20521;-84
2022/05/20 09:55:44;;;;;;;29.47;20.67;;;29.60;25.50;;;;;;5057317;28;20494;-82
2022/05/20 09:58:15;;;;;;;28.73;19.60;;;30.70;23.10;;;;;;5057102;28;20436;-82
2022/05/20 10:00:46;;;;;;;25.03;19.17;;;31.10;20.50;;;;;;5055971;28;20462;-82
2022/05/20 10:03:29;;;;;;;26.90;19.40;;;30.90;19.00;;;;;;5056768;28;20455;-82
2022/05/20 10:06:04;;;;;;;23.00;17.80;;;31.60;17.70;;;;;;5058969;28;20458;-82
2022/05/20 10:08:37;;;;;;;23.37;17.00;;;31.70;13.60;;;;;;5057123;28;20485;-82
2022/05/20 10:11:09;;;;;;;23.80;17.43;;;32.30;15.70;;;;;;5058875;28;20451;-83
2022/05/20 10:13:47;;;;;;;24.87;19.50;;;31.70;16.30;;;;;;5058829;28;20459;-82
2022/05/20 10:16:23;;;;;;;19.97;17.40;;;31.20;14.50;;;;;;5057042;28;20485;-82
2022/05/20 10:18:59;;;;;;;22.70;18.63;;;31.40;15.50;;;;;;5057751;28;20471;-82
2022/05/20 10:21:48;;;;;;;24.90;18.40;;;31.20;14.50;;;;;;5059517;28;20429;-82
2022/05/20 10:24:29;;;;;;;23.60;18.37;;;29.80;18.40;;;;;;5058231;28;20474;-82
2022/05/20 10:27:01;;;;;;;25.47;17.70;;;29.70;18.40;;;;;;5072484;28;20450;-82
2022/05/20 10:32:36;;;;;;;23.47;16.43;;;28.40;21.80;;;;;;5076724;28;20644;-82
2022/05/20 10:35:06;;;;;;;25.13;17.63;;;28.20;26.70;;;;;;5076710;28;20561;-82
2022/05/20 10:37:51;;;;;;;25.10;15.50;;;27.70;27.20;;;;;;5075406;28;20457;-82
2022/05/20 10:40:37;;;;;;;22.53;14.87;;;28.50;28.00;;;;;;5075836;28;20478;-81
2022/05/20 10:43:14;;;;;;;21.63;15.00;;;28.40;23.20;;;;;;5075187;28;20461;-83
2022/05/20 10:49:06;;;;;;;20.57;15.10;;;28.80;23.80;;;;;;5032583;28;21046;-83
2022/05/20 10:51:55;;;;;;;16.30;13.30;;;28.80;23.30;;;;;;5069875;28;20454;-84
2022/05/20 10:54:47;;;;;;;20.43;12.70;;;29.50;22.50;;;;;;5076650;28;20491;-83
2022/05/20 10:57:40;;;;;;;19.33;12.40;;;30.50;18.80;;;;;;5077198;28;20446;-82
2022/05/20 11:00:11;;;;;;;19.17;13.27;;;30.30;18.70;;;;;;5075522;28;20478;-82
2022/05/20 11:03:14;;;;;;;17.77;12.33;;;30.40;18.70;;;;;;5076612;28;20455;-83
2022/05/20 11:06:06;;;;;;;21.50;13.50;;;29.50;20.20;;;;;;5076605;28;20446;-83
2022/05/20 11:08:49;;;;;;;17.83;12.60;;;29.40;20.30;;;;;;5033885;28;20477;-83
2022/05/20 11:11:34;;;;;;;17.33;12.17;;;29.40;21.10;;;;;;5076097;28;20679;-84
2022/05/20 11:14:27;;;;;;;19.50;12.47;;;30.20;20.50;;;;;;5076328;28;20489;-84
2022/05/20 11:17:17;;;;;;;16.40;11.03;;;30.00;18.50;;;;;;5075556;28;20478;-84
2022/05/20 11:19:58;;;;;;;14.83;10.00;;;30.50;17.70;;;;;;5075441;28;20474;-84
2022/05/20 11:22:43;;;;;;;14.70;10.60;;;32.30;16.80;;;;;;5077318;28;20450;-84
2022/05/20 11:25:38;;;;;;;14.03;10.83;;;32.00;12.00;;;;;;5076787;28;20837;-86
2022/05/20 11:28:34;;;;;;;13.80;9.93;;;33.20;12.00;;;;;;5069203;28;20457;-82
2022/05/20 11:31:17;;;;;;;15.43;9.70;;;33.80;6.90;;;;;;5073453;28;20446;-83
2022/05/20 11:33:57;;;;;;;14.20;8.70;;;34.10;7.00;;;;;;5075280;28;20450;-83
2022/05/20 11:36:42;;;;;;;11.80;8.10;;;33.40;5.90;;;;;;5075857;28;20519;-83
2022/05/20 11:39:41;;;;;;;11.80;8.43;;;33.30;7.20;;;;;;5074720;28;20494;-83
2022/05/20 11:42:19;;;;;;;9.90;7.57;;;33.00;5.40;;;;;;5068859;28;20461;-83
2022/05/20 11:45:10;;;;;;;12.57;7.77;;;33.40;6.60;;;;;;5075185;28;20424;-83
2022/05/20 11:48:10;;;;;;;12.67;9.00;;;32.90;7.20;;;;;;5075354;28;20465;-83
2022/05/20 11:51:04;;;;;;;11.50;8.70;;;32.30;7.70;;;;;;5067889;28;20428;-83
2022/05/20 11:53:41;;;;;;;12.43;8.50;;;32.20;10.40;;;;;;5075133;28;20458;-83
2022/05/20 11:56:16;;;;;;;13.80;8.60;;;31.50;11.70;;;;;;5075796;28;20474;-83
2022/05/20 11:58:48;;;;;;;11.40;8.17;;;30.50;14.20;;;;;;5074496;28;20466;-83
2022/05/20 12:01:17;;;;;;;11.83;9.57;;;29.80;16.30;;;;;;5075685;28;20465;-83
2022/05/20 12:06:31;;;;;;;10.97;8.40;;;28.30;24.80;;;;;;5074168;28;20529;-83
2022/05/20 12:09:00;;;;;;;15.30;8.37;;;27.20;27.90;;;;;;5074118;28;20470;-83
2022/05/20 12:11:30;;;;;;;11.33;7.67;;;26.70;29.40;;;;;;5075581;28;20461;-83
2022/05/20 12:14:04;;;;;;;12.63;7.93;;;26.50;31.70;;;;;;5075630;28;20879;-83
2022/05/20 12:16:33;;;;;;;11.80;9.13;;;26.20;37.30;;;;;;5075280;28;20482;-83
2022/05/20 12:24:38;;;;;;;13.57;9.63;;;24.70;74.70;;;;;;5076103;28;20464;-84
2022/05/20 12:27:12;;;;;;;12.97;10.47;;;24.30;70.40;;;;;;5076492;28;20446;-81
2022/05/20 12:30:01;;;;;;;17.00;11.83;;;24.00;76.30;;;;;;5082446;28;20470;-80
2022/05/20 12:32:45;;;;;;;16.73;11.03;;;23.70;84.50;;;;;;5083362;28;20456;-81
2022/05/20 12:35:16;;;;;;;16.20;12.97;;;23.40;89.70;;;;;;5082441;28;20454;-82
2022/05/20 12:37:58;;;;;;;17.87;15.97;;;23.30;91.20;;;;;;5080504;28;20533;-81
2022/05/20 12:41:16;;;;;;;18.23;14.10;;;23.30;94.70;;;;;;5080661;28;20861;-81
2022/05/20 12:43:55;;;;;;;21.57;17.77;;;23.10;93.60;;;;;;4997104;28;21014;-81
2022/05/20 12:46:43;;;;;;;182.23;174.00;;;22.60;99.90;;;;;;4997391;28;20508;-80
2022/05/20 12:49:12;;;;;;;112.73;107.13;;;22.20;99.90;;;;;;5058363;28;20486;-80
2022/05/20 12:51:44;;;;;;;215.17;205.30;;;21.80;99.90;;;;;;5079557;28;20448;-80
2022/05/20 12:54:20;;;;;;;443.47;422.57;;;21.40;99.90;;;;;;5078202;28;20450;-81
2022/05/20 12:56:47;;;;;;;485.37;458.00;;;20.90;99.90;;;;;;5078924;28;20479;-81
2022/05/20 12:59:16;;;;;;;588.30;550.87;;;20.70;99.90;;;;;;5077514;28;20473;-82
2022/05/20 13:01:52;;;;;;;645.00;602.70;;;20.60;99.90;;;;;;5077840;28;20449;-81
2022/05/20 13:04:22;;;;;;;723.37;673.93;;;20.50;99.90;;;;;;5078782;28;20927;-82
2022/05/20 13:06:50;;;;;;;844.30;782.40;;;20.50;99.90;;;;;;5078409;28;21216;-83
2022/05/20 13:09:27;;;;;;;899.30;828.67;;;20.60;99.90;;;;;;5076997;28;20472;-81
2022/05/20 13:11:54;;;;;;;813.73;754.73;;;20.50;99.90;;;;;;5077707;28;20462;-82
2022/05/20 13:14:23;;;;;;;857.40;789.73;;;20.60;99.90;;;;;;5078303;28;20464;-82
2022/05/20 13:16:55;;;;;;;870.47;801.70;;;20.60;99.90;;;;;;5077080;28;20485;-82
2022/05/20 13:19:29;;;;;;;410.80;391.90;;;20.70;99.90;;;;;;5074982;28;20506;-84
2022/05/20 13:22:14;;;;;;;360.80;346.93;;;19.50;99.90;;;;;;5071946;28;20461;-84